sensor_id;sensor_type;location;lat;lon;timestamp;temperature;humidity
69418;DHT22;56610;48.872;2.400;2023-04-25T00:01:14;13.10;99.90
69418;DHT22;56610;48.872;2.400;2023-04-25T00:03:40;13.20;99.90
69418;DHT22;56610;48.872;2.400;2023-04-25T00:06:06;13.40;99.90
69418;DHT22;56610;48.872;2.400;2023-04-25T00:08:32;13.50;99.90
69418;DHT22;56610;48.872;2.400;2023-04-25T00:10:59;13.60;99.90
69418;DHT22;56610;48.872;2.400;2023-04-25T00:13:25;13.70;99.90
69418;DHT22;56610;48.872;2.400;2023-04-25T00:15:51;13.60;99.90
69418;DHT22;56610;48.872;2.400;2023-04-25T00:18:19;13.50;99.90
69418;DHT22;56610;48.872;2.400;2023-04-25T00:20:44;13.40;99.90
69418;DHT22;56610;48.872;2.400;2023-04-25T00:23:16;13.40;99.90
69418;DHT22;56610;48.872;2.400;2023-04-25T00:25:49;13.40;99.90
69418;DHT22;56610;48.872;2.400;2023-04-25T00:28:15;13.30;99.90
69418;DHT22;56610;48.872;2.400;2023-04-25T00:30:42;13.30;99.90
69418;DHT22;56610;48.872;2.400;2023-04-25T00:33:08;13.40;99.90
69418;DHT22;56610;48.872;2.400;2023-04-25T00:35:35;13.50;99.90
69418;DHT22;56610;48.872;2.400;2023-04-25T00:38:01;13.50;99.90
69418;DHT22;56610;48.872;2.400;2023-04-25T00:40:26;13.60;99.90
69418;DHT22;56610;48.872;2.400;2023-04-25T00:42:52;13.60;99.90
69418;DHT22;56610;48.872;2.400;2023-04-25T00:45:18;13.50;99.90
69418;DHT22;56610;48.872;2.400;2023-04-25T00:47:44;13.70;99.90
69418;DHT22;56610;48.872;2.400;2023-04-25T00:50:11;13.70;99.90
69418;DHT22;56610;48.872;2.400;2023-04-25T00:52:43;13.60;99.90
69418;DHT22;56610;48.872;2.400;2023-04-25T00:55:09;13.60;99.90
69418;DHT22;56610;48.872;2.400;2023-04-25T00:57:38;13.60;99.90
69418;DHT22;56610;48.872;2.400;2023-04-25T01:00:05;13.70;99.90
69418;DHT22;56610;48.872;2.400;2023-04-25T01:02:32;13.60;99.90
69418;DHT22;56610;48.872;2.400;2023-04-25T01:04:58;13.60;99.90
69418;DHT22;56610;48.872;2.400;2023-04-25T01:07:24;13.60;99.90
69418;DHT22;56610;48.872;2.400;2023-04-25T01:09:51;13.60;99.90
69418;DHT22;56610;48.872;2.400;2023-04-25T01:12:17;13.50;99.90
69418;DHT22;56610;48.872;2.400;2023-04-25T01:14:43;13.40;99.90
69418;DHT22;56610;48.872;2.400;2023-04-25T01:17:10;13.50;99.90
69418;DHT22;56610;48.872;2.400;2023-04-25T01:19:36;13.50;99.90
69418;DHT22;56610;48.872;2.400;2023-04-25T01:22:01;13.40;99.90
69418;DHT22;56610;48.872;2.400;2023-04-25T01:24:27;13.50;99.90
69418;DHT22;56610;48.872;2.400;2023-04-25T01:26:54;13.60;99.90
69418;DHT22;56610;48.872;2.400;2023-04-25T01:29:22;13.70;99.90
69418;DHT22;56610;48.872;2.400;2023-04-25T01:31:48;13.80;99.90
69418;DHT22;56610;48.872;2.400;2023-04-25T01:34:15;13.70;99.90
69418;DHT22;56610;48.872;2.400;2023-04-25T01:36:41;13.60;99.90
69418;DHT22;56610;48.872;2.400;2023-04-25T01:39:07;13.50;99.90
69418;DHT22;56610;48.872;2.400;2023-04-25T01:41:33;13.50;99.90
69418;DHT22;56610;48.872;2.400;2023-04-25T01:44:00;13.50;99.90
69418;DHT22;56610;48.872;2.400;2023-04-25T01:46:26;13.50;99.90
69418;DHT22;56610;48.872;2.400;2023-04-25T01:48:52;13.50;99.90
69418;DHT22;56610;48.872;2.400;2023-04-25T01:51:18;13.40;99.90
69418;DHT22;56610;48.872;2.400;2023-04-25T01:53:43;13.30;99.90
69418;DHT22;56610;48.872;2.400;2023-04-25T01:56:09;13.50;99.90
69418;DHT22;56610;48.872;2.400;2023-04-25T01:58:35;13.60;99.90
69418;DHT22;56610;48.872;2.400;2023-04-25T02:01:00;13.30;99.90
69418;DHT22;56610;48.872;2.400;2023-04-25T02:03:26;13.20;99.90
69418;DHT22;56610;48.872;2.400;2023-04-25T02:05:52;13.10;99.90
69418;DHT22;56610;48.872;2.400;2023-04-25T02:08:17;13.10;99.90
69418;DHT22;56610;48.872;2.400;2023-04-25T02:10:43;13.10;99.90
69418;DHT22;56610;48.872;2.400;2023-04-25T02:15:55;13.10;99.90
69418;DHT22;56610;48.872;2.400;2023-04-25T02:18:20;13.00;99.90
69418;DHT22;56610;48.872;2.400;2023-04-25T02:20:46;12.90;99.90
69418;DHT22;56610;48.872;2.400;2023-04-25T02:23:12;12.90;99.90
69418;DHT22;56610;48.872;2.400;2023-04-25T02:25:37;13.10;99.90
69418;DHT22;56610;48.872;2.400;2023-04-25T02:28:03;13.10;99.90
69418;DHT22;56610;48.872;2.400;2023-04-25T02:30:29;13.00;99.90
69418;DHT22;56610;48.872;2.400;2023-04-25T02:32:55;13.20;99.90
69418;DHT22;56610;48.872;2.400;2023-04-25T02:35:20;13.40;99.90
69418;DHT22;56610;48.872;2.400;2023-04-25T02:37:46;13.50;99.90
69418;DHT22;56610;48.872;2.400;2023-04-25T02:40:12;13.70;99.90
69418;DHT22;56610;48.872;2.400;2023-04-25T02:42:37;13.70;99.90
69418;DHT22;56610;48.872;2.400;2023-04-25T02:45:03;13.60;99.90
69418;DHT22;56610;48.872;2.400;2023-04-25T02:47:29;13.20;99.90
69418;DHT22;56610;48.872;2.400;2023-04-25T02:49:54;13.00;99.90
69418;DHT22;56610;48.872;2.400;2023-04-25T02:52:20;12.90;99.90
69418;DHT22;56610;48.872;2.400;2023-04-25T02:54:46;12.80;99.90
69418;DHT22;56610;48.872;2.400;2023-04-25T02:57:12;12.80;99.90
69418;DHT22;56610;48.872;2.400;2023-04-25T02:59:38;12.70;99.90
69418;DHT22;56610;48.872;2.400;2023-04-25T03:02:03;12.70;99.90
69418;DHT22;56610;48.872;2.400;2023-04-25T03:04:29;12.70;99.90
69418;DHT22;56610;48.872;2.400;2023-04-25T03:06:55;12.70;99.90
69418;DHT22;56610;48.872;2.400;2023-04-25T03:09:21;12.70;99.90
69418;DHT22;56610;48.872;2.400;2023-04-25T03:11:46;12.90;99.90
69418;DHT22;56610;48.872;2.400;2023-04-25T03:14:13;12.90;99.90
69418;DHT22;56610;48.872;2.400;2023-04-25T03:16:38;13.30;99.90
69418;DHT22;56610;48.872;2.400;2023-04-25T03:19:04;13.40;99.90
69418;DHT22;56610;48.872;2.400;2023-04-25T03:21:31;13.10;99.90
69418;DHT22;56610;48.872;2.400;2023-04-25T03:23:58;13.10;99.90
69418;DHT22;56610;48.872;2.400;2023-04-25T03:26:23;13.00;99.90
69418;DHT22;56610;48.872;2.400;2023-04-25T03:28:49;13.00;99.90
69418;DHT22;56610;48.872;2.400;2023-04-25T03:31:15;12.90;99.90
69418;DHT22;56610;48.872;2.400;2023-04-25T03:33:40;12.80;99.90
69418;DHT22;56610;48.872;2.400;2023-04-25T03:36:06;12.70;99.90
69418;DHT22;56610;48.872;2.400;2023-04-25T03:38:32;12.60;99.90
69418;DHT22;56610;48.872;2.400;2023-04-25T03:40:58;12.60;99.90
69418;DHT22;56610;48.872;2.400;2023-04-25T03:43:23;12.70;99.90
69418;DHT22;56610;48.872;2.400;2023-04-25T03:45:49;12.80;99.90
69418;DHT22;56610;48.872;2.400;2023-04-25T03:48:15;12.90;99.90
69418;DHT22;56610;48.872;2.400;2023-04-25T03:50:40;13.00;99.90
69418;DHT22;56610;48.872;2.400;2023-04-25T03:53:06;13.10;99.90
69418;DHT22;56610;48.872;2.400;2023-04-25T03:55:31;13.50;99.90
69418;DHT22;56610;48.872;2.400;2023-04-25T03:57:58;13.20;99.90
69418;DHT22;56610;48.872;2.400;2023-04-25T04:00:24;12.90;99.90
69418;DHT22;56610;48.872;2.400;2023-04-25T04:02:50;12.80;99.90
69418;DHT22;56610;48.872;2.400;2023-04-25T04:05:15;12.70;99.90
69418;DHT22;56610;48.872;2.400;2023-04-25T04:07:41;12.70;99.90
69418;DHT22;56610;48.872;2.400;2023-04-25T04:10:08;12.70;99.90
69418;DHT22;56610;48.872;2.400;2023-04-25T04:12:34;12.70;99.90
69418;DHT22;56610;48.872;2.400;2023-04-25T04:15:00;13.00;99.90
69418;DHT22;56610;48.872;2.400;2023-04-25T04:17:26;13.10;99.90
69418;DHT22;56610;48.872;2.400;2023-04-25T04:19:51;13.10;99.90
69418;DHT22;56610;48.872;2.400;2023-04-25T04:22:17;13.30;99.90
69418;DHT22;56610;48.872;2.400;2023-04-25T04:24:43;13.40;99.90
69418;DHT22;56610;48.872;2.400;2023-04-25T04:27:12;13.50;99.90
69418;DHT22;56610;48.872;2.400;2023-04-25T04:29:38;13.40;99.90
69418;DHT22;56610;48.872;2.400;2023-04-25T04:32:04;13.20;99.90
69418;DHT22;56610;48.872;2.400;2023-04-25T04:34:30;13.10;99.90
69418;DHT22;56610;48.872;2.400;2023-04-25T04:36:56;12.70;99.90
69418;DHT22;56610;48.872;2.400;2023-04-25T04:39:22;12.40;99.90
69418;DHT22;56610;48.872;2.400;2023-04-25T04:41:48;12.20;99.90
69418;DHT22;56610;48.872;2.400;2023-04-25T04:44:14;12.20;99.90
69418;DHT22;56610;48.872;2.400;2023-04-25T04:46:40;12.20;99.90
69418;DHT22;56610;48.872;2.400;2023-04-25T04:49:10;12.40;99.90
69418;DHT22;56610;48.872;2.400;2023-04-25T04:51:37;12.40;99.90
69418;DHT22;56610;48.872;2.400;2023-04-25T04:54:03;12.40;99.90
69418;DHT22;56610;48.872;2.400;2023-04-25T04:56:30;12.70;99.90
69418;DHT22;56610;48.872;2.400;2023-04-25T04:58:58;12.80;99.90
69418;DHT22;56610;48.872;2.400;2023-04-25T05:01:25;12.80;99.90
69418;DHT22;56610;48.872;2.400;2023-04-25T05:03:51;12.80;99.90
69418;DHT22;56610;48.872;2.400;2023-04-25T05:06:18;12.60;99.90
69418;DHT22;56610;48.872;2.400;2023-04-25T05:08:44;12.40;99.90
69418;DHT22;56610;48.872;2.400;2023-04-25T05:11:09;12.00;99.90
69418;DHT22;56610;48.872;2.400;2023-04-25T05:13:35;11.90;99.90
69418;DHT22;56610;48.872;2.400;2023-04-25T05:16:00;11.90;99.90
69418;DHT22;56610;48.872;2.400;2023-04-25T05:18:26;12.10;99.90
69418;DHT22;56610;48.872;2.400;2023-04-25T05:20:52;12.10;99.90
69418;DHT22;56610;48.872;2.400;2023-04-25T05:23:18;12.30;99.90
69418;DHT22;56610;48.872;2.400;2023-04-25T05:25:44;12.40;99.90
69418;DHT22;56610;48.872;2.400;2023-04-25T05:28:12;12.50;99.90
69418;DHT22;56610;48.872;2.400;2023-04-25T05:30:37;12.50;99.90
69418;DHT22;56610;48.872;2.400;2023-04-25T05:33:03;12.40;99.90
69418;DHT22;56610;48.872;2.400;2023-04-25T05:35:29;12.30;99.90
69418;DHT22;56610;48.872;2.400;2023-04-25T05:37:54;12.10;99.90
69418;DHT22;56610;48.872;2.400;2023-04-25T05:40:20;12.00;99.90
69418;DHT22;56610;48.872;2.400;2023-04-25T05:42:45;11.90;99.90
69418;DHT22;56610;48.872;2.400;2023-04-25T05:45:11;11.90;99.90
69418;DHT22;56610;48.872;2.400;2023-04-25T05:47:37;11.80;99.90
69418;DHT22;56610;48.872;2.400;2023-04-25T05:50:03;11.90;99.90
69418;DHT22;56610;48.872;2.400;2023-04-25T05:52:29;11.80;99.90
69418;DHT22;56610;48.872;2.400;2023-04-25T05:54:54;11.90;99.90
69418;DHT22;56610;48.872;2.400;2023-04-25T05:57:26;11.90;99.90
69418;DHT22;56610;48.872;2.400;2023-04-25T05:59:52;11.90;99.90
69418;DHT22;56610;48.872;2.400;2023-04-25T06:02:19;12.10;99.90
69418;DHT22;56610;48.872;2.400;2023-04-25T06:04:44;12.20;99.90
69418;DHT22;56610;48.872;2.400;2023-04-25T06:07:10;12.10;99.90
69418;DHT22;56610;48.872;2.400;2023-04-25T06:09:35;12.10;99.90
69418;DHT22;56610;48.872;2.400;2023-04-25T06:12:01;12.20;99.90
69418;DHT22;56610;48.872;2.400;2023-04-25T06:14:27;12.40;99.90
69418;DHT22;56610;48.872;2.400;2023-04-25T06:16:53;12.40;99.90
69418;DHT22;56610;48.872;2.400;2023-04-25T06:19:18;12.50;99.90
69418;DHT22;56610;48.872;2.400;2023-04-25T06:21:44;12.50;99.90
69418;DHT22;56610;48.872;2.400;2023-04-25T06:24:10;12.50;99.90
69418;DHT22;56610;48.872;2.400;2023-04-25T06:26:35;12.70;99.90
69418;DHT22;56610;48.872;2.400;2023-04-25T06:29:01;12.80;99.90
69418;DHT22;56610;48.872;2.400;2023-04-25T06:31:27;12.90;99.90
69418;DHT22;56610;48.872;2.400;2023-04-25T06:33:54;13.00;99.90
69418;DHT22;56610;48.872;2.400;2023-04-25T06:36:20;13.00;99.90
69418;DHT22;56610;48.872;2.400;2023-04-25T06:38:51;13.00;99.90
69418;DHT22;56610;48.872;2.400;2023-04-25T06:41:17;13.20;99.90
69418;DHT22;56610;48.872;2.400;2023-04-25T06:43:43;13.30;99.90
69418;DHT22;56610;48.872;2.400;2023-04-25T06:46:08;13.40;99.90
69418;DHT22;56610;48.872;2.400;2023-04-25T06:48:34;13.60;99.90
69418;DHT22;56610;48.872;2.400;2023-04-25T06:51:00;13.60;99.90
69418;DHT22;56610;48.872;2.400;2023-04-25T06:53:25;13.70;99.90
69418;DHT22;56610;48.872;2.400;2023-04-25T06:55:51;13.80;99.90
69418;DHT22;56610;48.872;2.400;2023-04-25T06:58:17;14.10;99.90
69418;DHT22;56610;48.872;2.400;2023-04-25T07:00:43;14.40;99.90
69418;DHT22;56610;48.872;2.400;2023-04-25T07:03:08;14.40;99.90
69418;DHT22;56610;48.872;2.400;2023-04-25T07:05:35;14.20;99.90
69418;DHT22;56610;48.872;2.400;2023-04-25T07:08:00;13.90;99.90
69418;DHT22;56610;48.872;2.400;2023-04-25T07:10:26;14.00;99.90
69418;DHT22;56610;48.872;2.400;2023-04-25T07:12:52;14.00;99.90
69418;DHT22;56610;48.872;2.400;2023-04-25T07:15:18;14.00;99.90
69418;DHT22;56610;48.872;2.400;2023-04-25T07:17:43;13.80;99.90
69418;DHT22;56610;48.872;2.400;2023-04-25T07:20:09;13.70;99.90
69418;DHT22;56610;48.872;2.400;2023-04-25T07:22:35;13.60;99.90
69418;DHT22;56610;48.872;2.400;2023-04-25T07:25:01;13.70;99.90
69418;DHT22;56610;48.872;2.400;2023-04-25T07:27:27;13.50;99.90
69418;DHT22;56610;48.872;2.400;2023-04-25T07:29:53;13.30;99.90
69418;DHT22;56610;48.872;2.400;2023-04-25T07:32:19;13.30;99.90
69418;DHT22;56610;48.872;2.400;2023-04-25T07:34:45;13.10;99.90
69418;DHT22;56610;48.872;2.400;2023-04-25T07:37:10;13.40;99.90
69418;DHT22;56610;48.872;2.400;2023-04-25T07:39:36;13.50;99.90
69418;DHT22;56610;48.872;2.400;2023-04-25T07:42:02;13.70;99.90
69418;DHT22;56610;48.872;2.400;2023-04-25T07:44:29;13.80;99.90
69418;DHT22;56610;48.872;2.400;2023-04-25T07:46:55;13.70;99.90
69418;DHT22;56610;48.872;2.400;2023-04-25T07:49:21;13.40;99.90
69418;DHT22;56610;48.872;2.400;2023-04-25T07:51:47;13.10;99.90
69418;DHT22;56610;48.872;2.400;2023-04-25T07:54:14;13.20;99.90
69418;DHT22;56610;48.872;2.400;2023-04-25T07:56:40;13.20;99.90
69418;DHT22;56610;48.872;2.400;2023-04-25T07:59:06;13.30;99.90
69418;DHT22;56610;48.872;2.400;2023-04-25T08:01:31;13.40;99.90
69418;DHT22;56610;48.872;2.400;2023-04-25T08:03:57;13.40;99.90
69418;DHT22;56610;48.872;2.400;2023-04-25T08:06:23;13.40;99.90
69418;DHT22;56610;48.872;2.400;2023-04-25T08:08:48;13.50;99.90
69418;DHT22;56610;48.872;2.400;2023-04-25T08:11:14;13.60;99.90
69418;DHT22;56610;48.872;2.400;2023-04-25T08:13:39;13.70;99.90
69418;DHT22;56610;48.872;2.400;2023-04-25T08:16:05;13.70;99.90
69418;DHT22;56610;48.872;2.400;2023-04-25T08:18:30;13.60;99.90
69418;DHT22;56610;48.872;2.400;2023-04-25T08:20:56;13.70;99.90
69418;DHT22;56610;48.872;2.400;2023-04-25T08:23:22;13.80;99.90
69418;DHT22;56610;48.872;2.400;2023-04-25T08:25:47;14.00;99.90
69418;DHT22;56610;48.872;2.400;2023-04-25T08:28:13;14.00;99.90
69418;DHT22;56610;48.872;2.400;2023-04-25T08:30:39;14.30;99.90
69418;DHT22;56610;48.872;2.400;2023-04-25T08:33:05;14.20;99.90
69418;DHT22;56610;48.872;2.400;2023-04-25T08:35:31;14.10;99.90
69418;DHT22;56610;48.872;2.400;2023-04-25T08:37:58;13.90;99.90
69418;DHT22;56610;48.872;2.400;2023-04-25T08:40:27;13.60;99.90
69418;DHT22;56610;48.872;2.400;2023-04-25T08:42:56;13.70;99.90
69418;DHT22;56610;48.872;2.400;2023-04-25T08:45:22;13.80;99.90
69418;DHT22;56610;48.872;2.400;2023-04-25T08:47:51;13.70;99.90
69418;DHT22;56610;48.872;2.400;2023-04-25T08:50:18;13.70;99.90
69418;DHT22;56610;48.872;2.400;2023-04-25T08:52:47;13.60;99.90
69418;DHT22;56610;48.872;2.400;2023-04-25T08:55:13;13.60;99.90
69418;DHT22;56610;48.872;2.400;2023-04-25T08:57:42;13.60;99.90
69418;DHT22;56610;48.872;2.400;2023-04-25T09:00:09;13.60;99.90
69418;DHT22;56610;48.872;2.400;2023-04-25T09:02:36;13.60;99.90
69418;DHT22;56610;48.872;2.400;2023-04-25T09:05:02;13.60;99.90
69418;DHT22;56610;48.872;2.400;2023-04-25T09:07:30;13.80;99.90
69418;DHT22;56610;48.872;2.400;2023-04-25T09:09:55;13.80;99.90
69418;DHT22;56610;48.872;2.400;2023-04-25T09:12:21;14.10;99.90
69418;DHT22;56610;48.872;2.400;2023-04-25T09:15:07;14.10;99.90
69418;DHT22;56610;48.872;2.400;2023-04-25T09:17:32;13.90;99.90
69418;DHT22;56610;48.872;2.400;2023-04-25T09:20:12;13.70;99.90
69418;DHT22;56610;48.872;2.400;2023-04-25T09:22:38;13.60;99.90
69418;DHT22;56610;48.872;2.400;2023-04-25T09:25:11;13.60;99.90
69418;DHT22;56610;48.872;2.400;2023-04-25T09:27:53;13.90;99.90
69418;DHT22;56610;48.872;2.400;2023-04-25T09:30:29;13.90;99.90
69418;DHT22;56610;48.872;2.400;2023-04-25T09:33:09;14.20;99.90
69418;DHT22;56610;48.872;2.400;2023-04-25T09:35:42;14.10;99.90
69418;DHT22;56610;48.872;2.400;2023-04-25T09:38:13;14.20;99.90
69418;DHT22;56610;48.872;2.400;2023-04-25T09:40:43;14.20;99.90
69418;DHT22;56610;48.872;2.400;2023-04-25T09:43:27;14.00;99.90
69418;DHT22;56610;48.872;2.400;2023-04-25T09:45:54;14.10;99.90
69418;DHT22;56610;48.872;2.400;2023-04-25T09:48:23;14.00;99.90
69418;DHT22;56610;48.872;2.400;2023-04-25T09:51:09;13.90;99.90
69418;DHT22;56610;48.872;2.400;2023-04-25T09:53:40;13.90;99.90
69418;DHT22;56610;48.872;2.400;2023-04-25T09:56:07;14.10;99.90
69418;DHT22;56610;48.872;2.400;2023-04-25T09:58:35;14.40;99.90
69418;DHT22;56610;48.872;2.400;2023-04-25T10:01:03;14.40;99.90
69418;DHT22;56610;48.872;2.400;2023-04-25T10:03:32;14.50;99.90
69418;DHT22;56610;48.872;2.400;2023-04-25T10:06:04;14.50;99.90
69418;DHT22;56610;48.872;2.400;2023-04-25T10:08:36;14.50;99.90
69418;DHT22;56610;48.872;2.400;2023-04-25T10:11:07;14.40;99.90
69418;DHT22;56610;48.872;2.400;2023-04-25T10:13:35;14.30;99.90
69418;DHT22;56610;48.872;2.400;2023-04-25T10:16:05;14.30;99.90
69418;DHT22;56610;48.872;2.400;2023-04-25T10:18:31;14.40;99.90
69418;DHT22;56610;48.872;2.400;2023-04-25T10:21:17;14.40;99.90
69418;DHT22;56610;48.872;2.400;2023-04-25T10:23:43;14.50;99.90
69418;DHT22;56610;48.872;2.400;2023-04-25T10:26:09;14.40;99.90
69418;DHT22;56610;48.872;2.400;2023-04-25T10:29:07;14.60;99.90
69418;DHT22;56610;48.872;2.400;2023-04-25T10:31:45;14.70;99.90
69418;DHT22;56610;48.872;2.400;2023-04-25T10:34:11;14.50;99.90
69418;DHT22;56610;48.872;2.400;2023-04-25T10:36:36;14.60;99.90
69418;DHT22;56610;48.872;2.400;2023-04-25T10:39:04;14.60;99.90
69418;DHT22;56610;48.872;2.400;2023-04-25T10:41:45;14.50;99.90
69418;DHT22;56610;48.872;2.400;2023-04-25T10:44:12;14.70;99.90
69418;DHT22;56610;48.872;2.400;2023-04-25T10:46:38;14.50;99.90
69418;DHT22;56610;48.872;2.400;2023-04-25T10:49:04;14.70;99.90
69418;DHT22;56610;48.872;2.400;2023-04-25T10:51:31;14.80;99.90
69418;DHT22;56610;48.872;2.400;2023-04-25T10:56:50;14.40;99.90
69418;DHT22;56610;48.872;2.400;2023-04-25T10:59:17;14.40;99.90
69418;DHT22;56610;48.872;2.400;2023-04-25T11:01:49;14.30;99.90
69418;DHT22;56610;48.872;2.400;2023-04-25T11:04:20;14.40;99.90
69418;DHT22;56610;48.872;2.400;2023-04-25T11:07:07;14.50;99.90
69418;DHT22;56610;48.872;2.400;2023-04-25T11:09:37;14.50;99.90
69418;DHT22;56610;48.872;2.400;2023-04-25T11:12:04;14.60;99.90
69418;DHT22;56610;48.872;2.400;2023-04-25T11:14:30;14.80;99.90
69418;DHT22;56610;48.872;2.400;2023-04-25T11:16:57;15.00;99.90
69418;DHT22;56610;48.872;2.400;2023-04-25T11:19:24;15.00;99.90
69418;DHT22;56610;48.872;2.400;2023-04-25T11:21:50;14.90;99.90
69418;DHT22;56610;48.872;2.400;2023-04-25T11:24:16;14.90;99.90
69418;DHT22;56610;48.872;2.400;2023-04-25T11:26:43;15.00;99.90
69418;DHT22;56610;48.872;2.400;2023-04-25T11:29:09;15.10;99.90
69418;DHT22;56610;48.872;2.400;2023-04-25T11:31:34;15.00;99.90
69418;DHT22;56610;48.872;2.400;2023-04-25T11:34:00;14.90;99.90
69418;DHT22;56610;48.872;2.400;2023-04-25T11:36:26;15.00;99.90
69418;DHT22;56610;48.872;2.400;2023-04-25T11:38:53;15.10;99.90
69418;DHT22;56610;48.872;2.400;2023-04-25T11:41:19;15.30;99.90
69418;DHT22;56610;48.872;2.400;2023-04-25T11:43:45;15.20;99.90
69418;DHT22;56610;48.872;2.400;2023-04-25T11:46:11;15.00;99.90
69418;DHT22;56610;48.872;2.400;2023-04-25T11:48:46;15.10;99.90
69418;DHT22;56610;48.872;2.400;2023-04-25T11:51:13;15.20;99.90
69418;DHT22;56610;48.872;2.400;2023-04-25T11:53:41;15.20;99.90
69418;DHT22;56610;48.872;2.400;2023-04-25T11:56:10;15.30;99.90
69418;DHT22;56610;48.872;2.400;2023-04-25T11:58:58;15.40;99.90
69418;DHT22;56610;48.872;2.400;2023-04-25T12:01:35;15.30;99.90
69418;DHT22;56610;48.872;2.400;2023-04-25T12:04:19;15.20;99.90
69418;DHT22;56610;48.872;2.400;2023-04-25T12:06:46;15.10;99.90
69418;DHT22;56610;48.872;2.400;2023-04-25T12:09:14;15.00;99.90
69418;DHT22;56610;48.872;2.400;2023-04-25T12:11:45;14.90;99.90
69418;DHT22;56610;48.872;2.400;2023-04-25T12:14:11;14.80;99.90
69418;DHT22;56610;48.872;2.400;2023-04-25T12:16:45;14.80;99.90
69418;DHT22;56610;48.872;2.400;2023-04-25T12:19:14;14.70;99.90
69418;DHT22;56610;48.872;2.400;2023-04-25T12:21:40;14.70;99.90
69418;DHT22;56610;48.872;2.400;2023-04-25T12:26:49;14.50;99.90
69418;DHT22;56610;48.872;2.400;2023-04-25T12:29:17;14.50;99.90
69418;DHT22;56610;48.872;2.400;2023-04-25T12:31:42;14.70;99.90
69418;DHT22;56610;48.872;2.400;2023-04-25T12:34:08;14.80;99.90
69418;DHT22;56610;48.872;2.400;2023-04-25T12:36:33;14.80;99.90
69418;DHT22;56610;48.872;2.400;2023-04-25T12:38:59;14.80;99.90
69418;DHT22;56610;48.872;2.400;2023-04-25T12:41:29;14.80;99.90
69418;DHT22;56610;48.872;2.400;2023-04-25T12:43:55;14.80;99.90
69418;DHT22;56610;48.872;2.400;2023-04-25T12:46:21;14.70;99.90
69418;DHT22;56610;48.872;2.400;2023-04-25T12:48:48;14.70;99.90
69418;DHT22;56610;48.872;2.400;2023-04-25T12:51:13;14.90;99.90
69418;DHT22;56610;48.872;2.400;2023-04-25T12:53:39;15.10;99.90
69418;DHT22;56610;48.872;2.400;2023-04-25T12:56:07;15.10;99.90
69418;DHT22;56610;48.872;2.400;2023-04-25T12:58:32;15.30;99.90
69418;DHT22;56610;48.872;2.400;2023-04-25T13:00:59;15.30;99.90
69418;DHT22;56610;48.872;2.400;2023-04-25T13:03:24;15.40;99.90
69418;DHT22;56610;48.872;2.400;2023-04-25T13:05:51;15.40;99.90
69418;DHT22;56610;48.872;2.400;2023-04-25T13:08:18;15.30;99.90
69418;DHT22;56610;48.872;2.400;2023-04-25T13:10:43;15.20;99.90
69418;DHT22;56610;48.872;2.400;2023-04-25T13:13:09;15.40;99.90
69418;DHT22;56610;48.872;2.400;2023-04-25T13:15:35;15.30;99.90
69418;DHT22;56610;48.872;2.400;2023-04-25T13:18:00;15.20;99.90
69418;DHT22;56610;48.872;2.400;2023-04-25T13:20:26;15.10;99.90
69418;DHT22;56610;48.872;2.400;2023-04-25T13:22:52;15.10;99.90
69418;DHT22;56610;48.872;2.400;2023-04-25T13:25:17;15.10;99.90
69418;DHT22;56610;48.872;2.400;2023-04-25T13:27:44;15.20;99.90
69418;DHT22;56610;48.872;2.400;2023-04-25T13:30:10;15.50;99.90
69418;DHT22;56610;48.872;2.400;2023-04-25T13:32:36;15.60;99.90
69418;DHT22;56610;48.872;2.400;2023-04-25T13:35:04;15.80;99.90
69418;DHT22;56610;48.872;2.400;2023-04-25T13:37:30;15.80;99.90
69418;DHT22;56610;48.872;2.400;2023-04-25T13:39:59;15.90;99.90
69418;DHT22;56610;48.872;2.400;2023-04-25T13:42:25;16.00;99.90
69418;DHT22;56610;48.872;2.400;2023-04-25T13:44:51;16.10;99.90
69418;DHT22;56610;48.872;2.400;2023-04-25T13:47:16;16.00;99.90
69418;DHT22;56610;48.872;2.400;2023-04-25T13:49:42;16.10;99.90
69418;DHT22;56610;48.872;2.400;2023-04-25T13:52:07;16.10;99.90
69418;DHT22;56610;48.872;2.400;2023-04-25T13:54:33;16.10;99.90
69418;DHT22;56610;48.872;2.400;2023-04-25T13:56:59;15.90;99.90
69418;DHT22;56610;48.872;2.400;2023-04-25T13:59:25;16.00;99.90
69418;DHT22;56610;48.872;2.400;2023-04-25T14:01:51;15.80;99.90
69418;DHT22;56610;48.872;2.400;2023-04-25T14:04:17;15.80;99.90
69418;DHT22;56610;48.872;2.400;2023-04-25T14:06:42;15.90;99.90
69418;DHT22;56610;48.872;2.400;2023-04-25T14:09:08;16.00;99.90
69418;DHT22;56610;48.872;2.400;2023-04-25T14:11:36;15.90;99.90
69418;DHT22;56610;48.872;2.400;2023-04-25T14:14:03;16.00;99.90
69418;DHT22;56610;48.872;2.400;2023-04-25T14:16:29;15.90;99.90
69418;DHT22;56610;48.872;2.400;2023-04-25T14:18:57;15.80;99.90
69418;DHT22;56610;48.872;2.400;2023-04-25T14:21:23;15.90;99.90
69418;DHT22;56610;48.872;2.400;2023-04-25T14:23:48;16.00;99.90
69418;DHT22;56610;48.872;2.400;2023-04-25T14:26:15;15.90;99.90
69418;DHT22;56610;48.872;2.400;2023-04-25T14:28:41;15.70;99.90
69418;DHT22;56610;48.872;2.400;2023-04-25T14:31:07;15.80;99.90
69418;DHT22;56610;48.872;2.400;2023-04-25T14:33:32;15.90;99.90
69418;DHT22;56610;48.872;2.400;2023-04-25T14:35:58;15.70;99.90
69418;DHT22;56610;48.872;2.400;2023-04-25T14:38:24;15.60;99.90
69418;DHT22;56610;48.872;2.400;2023-04-25T14:40:51;15.40;99.90
69418;DHT22;56610;48.872;2.400;2023-04-25T14:43:16;15.40;99.90
69418;DHT22;56610;48.872;2.400;2023-04-25T14:45:42;15.30;99.90
69418;DHT22;56610;48.872;2.400;2023-04-25T14:48:08;15.40;99.90
69418;DHT22;56610;48.872;2.400;2023-04-25T14:50:33;15.40;99.90
69418;DHT22;56610;48.872;2.400;2023-04-25T14:52:59;15.40;99.90
69418;DHT22;56610;48.872;2.400;2023-04-25T14:55:26;15.40;99.90
69418;DHT22;56610;48.872;2.400;2023-04-25T14:57:53;15.50;99.90
69418;DHT22;56610;48.872;2.400;2023-04-25T15:00:19;15.40;99.90
69418;DHT22;56610;48.872;2.400;2023-04-25T15:02:46;15.30;99.90
69418;DHT22;56610;48.872;2.400;2023-04-25T15:05:12;15.40;99.90
69418;DHT22;56610;48.872;2.400;2023-04-25T15:07:39;15.50;99.90
69418;DHT22;56610;48.872;2.400;2023-04-25T15:10:06;15.60;99.90
69418;DHT22;56610;48.872;2.400;2023-04-25T15:12:36;15.60;99.90
69418;DHT22;56610;48.872;2.400;2023-04-25T15:15:03;15.60;99.90
69418;DHT22;56610;48.872;2.400;2023-04-25T15:17:28;15.60;99.90
69418;DHT22;56610;48.872;2.400;2023-04-25T15:19:56;15.50;99.90
69418;DHT22;56610;48.872;2.400;2023-04-25T15:22:22;15.40;99.90
69418;DHT22;56610;48.872;2.400;2023-04-25T15:24:47;15.30;99.90
69418;DHT22;56610;48.872;2.400;2023-04-25T15:27:13;15.20;99.90
69418;DHT22;56610;48.872;2.400;2023-04-25T15:29:39;15.40;99.90
69418;DHT22;56610;48.872;2.400;2023-04-25T15:32:05;15.40;99.90
69418;DHT22;56610;48.872;2.400;2023-04-25T15:34:31;15.40;99.90
69418;DHT22;56610;48.872;2.400;2023-04-25T15:36:56;15.60;99.90